Time;durP1;ratioP1;P1;durP2;ratioP2;P2;SDS_P1;SDS_P2;PMS_P1;PMS_P2;Temp;Humidity;BMP_temperature;BMP_pressure;BME280_temperature;BME280_humidity;BME280_pressure;Samples;Min_cycle;Max_cycle;Signal;HPM_P1;HPM_P2
2021/06/04 00:01:30;;;;;;;11.18;7.80;;;307.30;2304.00;;;;;;4990122;28;20027;-71
2021/06/04 00:03:57;;;;;;;14.75;7.50;;;307.30;2304.00;;;;;;4989985;28;20030;-74
2021/06/04 00:06:25;;;;;;;12.50;7.05;;;307.50;2304.00;;;;;;4988949;28;20058;-70
2021/06/04 00:08:51;;;;;;;9.45;7.45;;;307.20;2304.00;;;;;;4990089;28;20050;-70
2021/06/04 00:11:28;;;;;;;8.98;7.10;;;307.20;2304.00;;;;;;4990352;28;20109;-70
2021/06/04 00:14:01;;;;;;;11.02;7.38;;;307.20;2304.00;;;;;;4990421;28;20019;-79
2021/06/04 00:16:42;;;;;;;11.02;6.65;;;307.20;2304.00;;;;;;4989085;28;20113;-79
2021/06/04 00:19:13;;;;;;;10.82;7.60;;;282.50;2278.40;;;;;;4989889;28;20463;-69
2021/06/04 00:21:43;;;;;;;10.57;6.70;;;282.50;2278.40;;;;;;4989688;28;20476;-69
2021/06/04 00:24:10;;;;;;;11.30;7.15;;;282.50;2278.40;;;;;;4989953;28;20027;-69
2021/06/04 00:26:42;;;;;;;12.25;6.90;;;282.20;2278.40;;;;;;4989695;28;20034;-69
2021/06/04 00:29:08;;;;;;;10.65;7.13;;;282.30;2278.40;;;;;;4989795;28;20023;-69
2021/06/04 00:31:34;;;;;;;11.18;7.53;;;282.20;2278.40;;;;;;4989787;28;20510;-71
2021/06/04 00:34:00;;;;;;;10.65;6.80;;;282.20;2278.40;;;;;;4989928;28;20022;-70
2021/06/04 00:36:26;;;;;;;9.95;6.78;;;282.20;2278.40;;;;;;4990130;28;20026;-70
2021/06/04 00:38:54;;;;;;;13.45;7.50;;;282.10;2278.40;;;;;;4993291;28;20168;-73
2021/06/04 00:41:25;;;;;;;9.18;7.32;;;282.10;2278.40;;;;;;4993035;28;20071;-73
2021/06/04 00:43:53;;;;;;;16.00;10.02;;;282.10;2278.40;;;;;;4993033;28;20625;-73
2021/06/04 00:46:19;;;;;;;16.27;10.52;;;282.00;2278.40;;;;;;4993046;28;20034;-73
2021/06/04 00:48:46;;;;;;;14.18;9.90;;;282.00;2278.40;;;;;;4992799;28;20033;-69
2021/06/04 00:51:11;;;;;;;19.02;10.18;;;282.00;2278.40;;;;;;4993000;28;20034;-69
2021/06/04 00:53:38;;;;;;;13.98;9.43;;;282.00;2278.40;;;;;;4992765;28;20045;-70
2021/06/04 00:56:05;;;;;;;15.05;10.05;;;281.90;2278.40;;;;;;4992875;28;20030;-70
2021/06/04 00:58:35;;;;;;;14.93;9.43;;;281.80;2278.40;;;;;;4992738;28;20392;-68
2021/06/04 01:01:01;;;;;;;;;;;281.80;2278.40;;;;;;4993485;28;20050;-75
2021/06/04 01:03:31;;;;;;;13.70;9.10;;;281.80;2278.40;;;;;;4992750;28;19993;-70
2021/06/04 01:06:25;;;;;;;14.40;8.75;;;281.80;2278.40;;;;;;4992552;28;20097;-70
2021/06/04 01:09:15;;;;;;;13.90;8.38;;;281.80;2278.40;;;;;;4992623;28;20015;-69
2021/06/04 01:12:18;;;;;;;13.13;8.50;;;281.70;2278.40;;;;;;4992728;28;20353;-75
2021/06/04 01:15:05;;;;;;;13.23;8.50;;;281.60;2278.40;;;;;;4992733;28;20392;-75
2021/06/04 01:17:56;;;;;;;12.07;7.90;;;281.60;2278.40;;;;;;4991151;28;20022;-79
2021/06/04 01:20:33;;;;;;;11.55;8.23;;;281.60;2278.40;;;;;;4992640;28;20019;-77
2021/06/04 01:23:11;;;;;;;12.15;8.13;;;281.60;2278.40;;;;;;4991085;28;20039;-76
2021/06/04 01:26:02;;;;;;;13.77;8.23;;;256.90;2252.80;;;;;;4992454;28;20022;-73
2021/06/04 01:28:33;;;;;;;11.57;8.02;;;256.90;2252.80;;;;;;4991176;28;20484;-73
2021/06/04 01:31:17;;;;;;;10.70;7.72;;;256.80;2252.80;;;;;;4991156;28;20035;-70
2021/06/04 01:33:48;;;;;;;11.90;7.97;;;256.80;2252.80;;;;;;4992199;28;20042;-69
2021/06/04 01:36:19;;;;;;;10.05;7.57;;;256.70;2252.80;;;;;;4992331;28;20103;-69
2021/06/04 01:38:47;;;;;;;12.45;7.25;;;256.50;2252.80;;;;;;4992161;28;20542;-70
2021/06/04 01:41:15;;;;;;;12.63;8.02;;;256.50;2252.80;;;;;;4992213;28;20034;-68
2021/06/04 01:43:46;;;;;;;10.75;7.63;;;256.60;2252.80;;;;;;4992016;28;20297;-70
2021/06/04 01:46:24;;;;;;;10.02;7.13;;;256.60;2252.80;;;;;;4992487;28;20113;-71
2021/06/04 01:48:53;;;;;;;11.20;7.70;;;256.60;2252.80;;;;;;4990909;28;20078;-69
2021/06/04 01:51:21;;;;;;;10.73;7.38;;;256.70;2252.80;;;;;;4992026;28;20034;-75
2021/06/04 01:53:52;;;;;;;10.93;7.97;;;256.60;2252.80;;;;;;4992016;28;20030;-75
2021/06/04 01:56:42;;;;;;;10.45;7.43;;;256.60;2252.80;;;;;;4992017;28;20030;-69
2021/06/04 01:59:16;;;;;;;11.27;7.78;;;256.60;2252.80;;;;;;4991058;28;20073;-67
2021/06/04 02:01:47;;;;;;;12.55;7.75;;;256.50;2252.80;;;;;;4991847;28;20033;-70
2021/06/04 02:04:20;;;;;;;8.73;7.30;;;256.40;2252.80;;;;;;4992070;28;20029;-78
2021/06/04 02:06:47;;;;;;;9.75;7.00;;;256.20;2252.80;;;;;;4992209;28;20039;-78
2021/06/04 02:09:16;;;;;;;11.65;7.25;;;256.30;2252.80;;;;;;4991861;28;20033;-73
2021/06/04 02:11:43;;;;;;;9.68;7.18;;;256.20;2252.80;;;;;;4991648;28;20030;-73
2021/06/04 02:14:14;;;;;;;9.35;7.15;;;256.20;2252.80;;;;;;4991900;28;20030;-78
2021/06/04 02:16:45;;;;;;;9.18;7.15;;;256.20;2252.80;;;;;;4991651;28;20104;-79
2021/06/04 02:19:23;;;;;;;8.45;6.90;;;256.30;2252.80;;;;;;4990486;28;20019;-77
2021/06/04 02:22:27;;;;;;;9.00;6.97;;;256.30;2252.80;;;;;;4990622;28;20095;-78
2021/06/04 02:25:08;;;;;;;9.55;6.80;;;256.30;2252.80;;;;;;4944571;28;20488;-76
2021/06/04 02:27:58;;;;;;;10.52;7.18;;;256.20;2252.80;;;;;;4991510;28;20027;-77
2021/06/04 02:30:35;;;;;;;8.90;7.05;;;256.30;2252.80;;;;;;4991507;28;20022;-79
2021/06/04 02:33:24;;;;;;;9.05;7.45;;;256.30;2252.80;;;;;;4973879;28;20088;-79
2021/06/04 02:35:57;;;;;;;9.63;7.00;;;256.20;2252.80;;;;;;4991325;28;20027;-70
2021/06/04 02:38:41;;;;;;;21.73;11.50;;;256.30;2252.80;;;;;;4991411;28;20392;-70
2021/06/04 02:41:19;;;;;;;16.08;10.48;;;256.30;2252.80;;;;;;4978907;28;20060;-72
2021/06/04 02:43:56;;;;;;;17.08;11.05;;;256.30;2252.80;;;;;;4991235;28;20018;-77
2021/06/04 02:46:35;;;;;;;15.50;9.13;;;256.20;2252.80;;;;;;4991406;28;20508;-77
2021/06/04 02:49:03;;;;;;;20.50;13.65;;;256.20;2252.80;;;;;;4991107;28;20026;-78
2021/06/04 02:51:43;;;;;;;19.20;12.13;;;256.20;2252.80;;;;;;4990208;28;20557;-78
2021/06/04 02:54:16;;;;;;;15.13;10.52;;;256.20;2252.80;;;;;;4991207;28;20053;-78
2021/06/04 02:56:54;;;;;;;9.45;6.78;;;256.20;2252.80;;;;;;4991088;28;20029;-70
2021/06/04 02:59:22;;;;;;;10.00;6.68;;;256.30;2252.80;;;;;;4990390;28;20046;-77
2021/06/04 03:01:54;;;;;;;11.77;9.23;;;256.30;2252.80;;;;;;4991104;28;20022;-77
2021/06/04 03:04:21;;;;;;;10.27;8.02;;;256.40;2252.80;;;;;;4990979;28;20097;-77
2021/06/04 03:07:02;;;;;;;10.95;7.40;;;256.40;2252.80;;;;;;4991025;28;20106;-77
2021/06/04 03:09:31;;;;;;;22.92;17.20;;;256.50;2252.80;;;;;;4990767;28;20026;-78
2021/06/04 03:12:02;;;;;;;10.27;8.10;;;256.30;2252.80;;;;;;4990824;28;20032;-78
2021/06/04 03:14:28;;;;;;;9.13;6.90;;;256.40;2252.80;;;;;;4990698;28;20073;-69
2021/06/04 03:16:56;;;;;;;7.97;6.53;;;256.30;2252.80;;;;;;4990852;28;20031;-69
2021/06/04 03:19:23;;;;;;;9.55;6.50;;;256.30;2252.80;;;;;;4990794;28;20535;-73
2021/06/04 03:21:53;;;;;;;8.50;6.28;;;256.40;2252.80;;;;;;4990779;28;20076;-77
2021/06/04 03:24:26;;;;;;;8.70;6.32;;;256.40;2252.80;;;;;;4973399;28;20023;-78
2021/06/04 03:26:51;;;;;;;10.23;8.60;;;256.40;2252.80;;;;;;4989373;28;20022;-79
2021/06/04 03:29:19;;;;;;;9.43;7.93;;;256.40;2252.80;;;;;;4990722;28;20023;-78
2021/06/04 03:31:49;;;;;;;17.25;15.05;;;256.30;2252.80;;;;;;5010682;28;20042;-78
2021/06/04 03:34:15;;;;;;;13.15;10.68;;;256.40;2252.80;;;;;;4997075;28;20029;-78
2021/06/04 03:36:44;;;;;;;11.80;8.68;;;256.30;2252.80;;;;;;4990248;28;20026;-78
2021/06/04 03:39:15;;;;;;;9.90;7.57;;;256.30;2252.80;;;;;;4990668;28;20023;-79
2021/06/04 03:41:42;;;;;;;11.77;7.55;;;256.30;2252.80;;;;;;4990693;28;20053;-79
2021/06/04 03:44:11;;;;;;;10.27;7.15;;;256.40;2252.80;;;;;;4990365;28;20442;-79
2021/06/04 03:46:38;;;;;;;9.23;6.72;;;256.40;2252.80;;;;;;4990381;28;20026;-78
2021/06/04 03:49:04;;;;;;;9.60;7.32;;;256.30;2252.80;;;;;;5021579;28;20117;-76
2021/06/04 03:51:33;;;;;;;14.70;10.25;;;256.50;2252.80;;;;;;4990474;28;20376;-77
2021/06/04 03:53:59;;;;;;;14.07;8.63;;;256.40;2252.80;;;;;;4990392;28;20023;-79
2021/06/04 03:56:26;;;;;;;13.70;9.13;;;256.40;2252.80;;;;;;4990118;28;20015;-78
2021/06/04 03:58:54;;;;;;;13.48;9.07;;;256.40;2252.80;;;;;;4989698;28;20034;-78
2021/06/04 04:01:27;;;;;;;13.25;8.15;;;256.50;2252.80;;;;;;5002165;28;20030;-78
2021/06/04 04:03:53;;;;;;;12.77;8.82;;;256.40;2252.80;;;;;;4990077;28;20026;-78
2021/06/04 04:06:19;;;;;;;12.73;8.43;;;256.50;2252.80;;;;;;4990125;28;20023;-75
2021/06/04 04:08:45;;;;;;;9.98;7.55;;;256.60;2252.80;;;;;;4972746;28;20037;-72
2021/06/04 04:11:11;;;;;;;10.88;8.20;;;256.50;2252.80;;;;;;4989977;28;20027;-77
2021/06/04 04:13:37;;;;;;;10.55;8.13;;;256.50;2252.80;;;;;;4993601;28;20484;-77
2021/06/04 04:16:03;;;;;;;11.25;7.35;;;256.70;2252.80;;;;;;4993555;28;20038;-69
2021/06/04 04:18:29;;;;;;;9.45;7.53;;;256.90;2252.80;;;;;;4993468;28;20034;-76
2021/06/04 04:20:59;;;;;;;18.20;9.30;;;281.60;2278.40;;;;;;4993414;28;20022;-72
2021/06/04 04:23:36;;;;;;;13.73;7.70;;;281.80;2278.40;;;;;;4993225;28;20476;-72
2021/06/04 04:26:02;;;;;;;10.85;7.28;;;281.80;2278.40;;;;;;4993296;28;20046;-72
2021/06/04 04:28:32;;;;;;;12.05;8.45;;;281.90;2278.40;;;;;;4993199;28;20019;-70
2021/06/04 04:30:59;;;;;;;11.38;7.32;;;282.10;2278.40;;;;;;4993367;28;20038;-70
2021/06/04 04:33:26;;;;;;;11.85;6.88;;;282.30;2278.40;;;;;;4992932;28;20389;-70
2021/06/04 04:35:51;;;;;;;10.07;7.25;;;282.50;2278.40;;;;;;4993305;28;20513;-69
2021/06/04 04:38:20;;;;;;;8.70;6.80;;;307.20;2304.00;;;;;;4993201;28;20034;-70
2021/06/04 04:40:48;;;;;;;9.52;7.03;;;307.40;2304.00;;;;;;4993434;28;20034;-70
2021/06/04 04:43:14;;;;;;;8.38;6.22;;;307.50;2304.00;;;;;;4993088;28;20023;-69
2021/06/04 04:45:40;;;;;;;9.60;6.40;;;307.70;2304.00;;;;;;4992963;28;20019;-70
2021/06/04 04:48:07;;;;;;;10.13;6.40;;;308.00;2304.00;;;;;;4993031;28;20018;-69
2021/06/04 04:50:36;;;;;;;7.60;6.55;;;333.10;2329.60;;;;;;4993147;28;20379;-75
2021/06/04 04:53:02;;;;;;;11.30;7.30;;;333.40;2329.60;;;;;;4993089;28;20022;-74
2021/06/04 04:55:30;;;;;;;11.48;7.75;;;333.70;2329.60;;;;;;4992821;28;20485;-74
2021/06/04 04:57:57;;;;;;;12.30;7.97;;;358.60;2329.60;;;;;;4992972;28;20126;-74
2021/06/04 05:00:26;;;;;;;11.55;7.60;;;358.70;2329.60;;;;;;4992726;28;20049;-75
2021/06/04 05:02:53;;;;;;;10.93;7.85;;;358.90;2329.60;;;;;;4992847;28;20061;-74
2021/06/04 05:05:22;;;;;;;12.95;7.95;;;359.10;2329.60;;;;;;4992803;28;20507;-73
2021/06/04 05:07:48;;;;;;;12.40;8.18;;;359.30;2329.60;;;;;;4992430;28;20117;-71
2021/06/04 05:10:14;;;;;;;11.52;8.48;;;384.10;2329.60;;;;;;4992855;28;20535;-74
2021/06/04 05:12:40;;;;;;;13.90;8.85;;;384.30;2329.60;;;;;;4992664;28;20118;-74
2021/06/04 05:15:12;;;;;;;15.45;9.40;;;384.50;2329.60;;;;;;4992811;28;20033;-73
2021/06/04 05:17:37;;;;;;;15.23;10.10;;;384.80;2329.60;;;;;;4992795;28;20027;-71
2021/06/04 05:20:04;;;;;;;15.68;9.65;;;409.60;2355.20;;;;;;4992402;28;20022;-69
2021/06/04 05:22:30;;;;;;;12.52;7.45;;;409.60;2355.20;;;;;;4992321;28;20027;-71
2021/06/04 05:24:56;;;;;;;11.13;7.22;;;409.80;2355.20;;;;;;4992226;28;20030;-73
2021/06/04 05:27:22;;;;;;;9.35;6.50;;;410.10;2355.20;;;;;;4992383;28;20023;-69
2021/06/04 05:29:48;;;;;;;10.90;6.72;;;410.30;2355.20;;;;;;4992059;28;20065;-71
2021/06/04 05:32:15;;;;;;;9.55;6.50;;;410.30;2355.20;;;;;;4991697;28;20058;-70
2021/06/04 05:34:40;;;;;;;9.40;7.05;;;410.50;2355.20;;;;;;4992278;28;20088;-74
2021/06/04 05:37:06;;;;;;;9.27;6.30;;;410.50;2355.20;;;;;;4992112;28;20022;-74
2021/06/04 05:39:32;;;;;;;8.93;6.22;;;435.20;2355.20;;;;;;4992122;28;20110;-74
2021/06/04 05:42:01;;;;;;;9.50;6.95;;;410.20;2355.20;;;;;;4992098;28;20063;-77
2021/06/04 05:44:33;;;;;;;10.30;6.57;;;409.80;2355.20;;;;;;4990256;28;20416;-70
2021/06/04 05:47:05;;;;;;;18.80;9.93;;;409.90;2355.20;;;;;;4991934;28;20023;-73
2021/06/04 05:49:31;;;;;;;13.38;7.82;;;409.60;2355.20;;;;;;4992197;28;20033;-77
2021/06/04 05:51:58;;;;;;;9.23;6.53;;;410.00;2355.20;;;;;;4992049;28;20023;-79
2021/06/04 05:54:25;;;;;;;10.05;6.80;;;435.30;2355.20;;;;;;4992035;28;20021;-80
2021/06/04 05:56:51;;;;;;;8.18;6.60;;;435.30;2355.20;;;;;;5005371;28;20095;-79
2021/06/04 05:59:17;;;;;;;10.82;6.80;;;435.40;2355.20;;;;;;5011495;28;20026;-75
2021/06/04 06:01:46;;;;;;;9.15;6.85;;;435.30;2355.20;;;;;;5011657;28;20037;-74
2021/06/04 06:04:13;;;;;;;8.82;6.55;;;435.20;2355.20;;;;;;5011652;28;20024;-72
2021/06/04 06:06:39;;;;;;;8.60;6.55;;;410.50;2355.20;;;;;;5011324;28;20399;-74
2021/06/04 06:09:06;;;;;;;9.38;6.78;;;410.50;2355.20;;;;;;5011380;28;20079;-73
2021/06/04 06:11:32;;;;;;;10.00;6.97;;;435.30;2355.20;;;;;;5011263;28;20029;-69
2021/06/04 06:14:00;;;;;;;9.50;6.90;;;435.50;2355.20;;;;;;5011377;28;20555;-68
2021/06/04 06:16:28;;;;;;;8.80;6.97;;;435.50;2355.20;;;;;;5011022;28;20536;-70
2021/06/04 06:18:53;;;;;;;9.25;6.57;;;435.90;2355.20;;;;;;5011336;28;20056;-71
2021/06/04 06:21:20;;;;;;;9.57;7.07;;;461.00;2380.80;;;;;;5011277;28;20065;-69
2021/06/04 06:23:45;;;;;;;10.93;7.05;;;460.80;2380.80;;;;;;5011021;28;20109;-69
2021/06/04 06:26:22;;;;;;;13.40;6.57;;;460.90;2380.80;;;;;;5011289;28;20540;-69
2021/06/04 06:28:49;;;;;;;8.90;6.55;;;461.40;2380.80;;;;;;4998205;28;20057;-69
2021/06/04 06:31:20;;;;;;;10.40;6.55;;;486.40;2380.80;;;;;;5011272;28;20060;-69
2021/06/04 06:33:47;;;;;;;8.15;6.18;;;486.40;2380.80;;;;;;5011045;28;20113;-75
2021/06/04 06:36:19;;;;;;;8.65;6.40;;;461.70;2380.80;;;;;;5010453;28;20026;-75
2021/06/04 06:38:48;;;;;;;8.48;6.35;;;461.50;2380.80;;;;;;5010904;28;20491;-75
2021/06/04 06:41:15;;;;;;;7.85;6.35;;;461.40;2380.80;;;;;;5011193;28;20388;-75
2021/06/04 06:43:46;;;;;;;14.95;6.60;;;461.70;2380.80;;;;;;5010631;28;20061;-71
2021/06/04 06:46:13;;;;;;;11.57;6.05;;;486.70;2380.80;;;;;;5010774;28;20026;-71
2021/06/04 06:48:39;;;;;;;9.45;6.25;;;487.20;2380.80;;;;;;5010646;28;20360;-70
2021/06/04 06:51:06;;;;;;;8.15;5.82;;;487.10;2380.80;;;;;;5010868;28;20033;-70
2021/06/04 06:53:32;;;;;;;9.13;6.43;;;512.00;2380.80;;;;;;5010398;28;20025;-70
2021/06/04 06:55:58;;;;;;;9.10;5.97;;;512.70;2380.80;;;;;;5009847;28;20032;-74
2021/06/04 06:58:26;;;;;;;8.88;6.45;;;537.60;2406.40;;;;;;5009418;28;20426;-75
2021/06/04 07:00:53;;;;;;;9.45;6.20;;;538.00;2406.40;;;;;;5010020;28;20109;-71
2021/06/04 07:03:23;;;;;;;9.15;6.35;;;538.30;2406.40;;;;;;5009554;28;20498;-71
2021/06/04 07:05:51;;;;;;;;;;;538.50;2406.40;;;;;;5010587;28;20322;-74
2021/06/04 07:08:17;;;;;;;8.88;6.60;;;563.60;2432.00;;;;;;5009927;28;20343;-74
2021/06/04 07:10:43;;;;;;;11.65;7.00;;;563.50;2432.00;;;;;;5010057;28;20106;-74
2021/06/04 07:13:12;;;;;;;8.68;6.50;;;563.60;2432.00;;;;;;5009796;28;20057;-74
2021/06/04 07:15:38;;;;;;;9.35;6.68;;;563.70;2432.00;;;;;;5009915;28;20018;-74
2021/06/04 07:18:05;;;;;;;9.13;6.20;;;588.90;2432.00;;;;;;5009732;28;20026;-70
2021/06/04 07:20:34;;;;;;;7.57;6.30;;;614.40;2432.00;;;;;;5009784;28;20376;-69
2021/06/04 07:23:02;;;;;;;10.10;7.38;;;614.40;2432.00;;;;;;5009905;28;20117;-70
2021/06/04 07:25:31;;;;;;;9.55;6.85;;;589.70;2432.00;;;;;;5009867;28;20444;-71
2021/06/04 07:27:57;;;;;;;7.38;6.05;;;614.80;2432.00;;;;;;5009837;28;20412;-70
2021/06/04 07:30:28;;;;;;;8.23;6.80;;;614.80;2432.00;;;;;;5009847;28;20397;-76
2021/06/04 07:32:53;;;;;;;8.73;5.88;;;614.90;2432.00;;;;;;5009616;28;20025;-73
2021/06/04 07:35:23;;;;;;;9.55;6.45;;;640.20;2380.80;;;;;;5009289;28;20033;-70
2021/06/04 07:37:50;;;;;;;7.97;5.85;;;615.00;2329.60;;;;;;5009559;28;20026;-69
2021/06/04 07:40:20;;;;;;;7.63;6.13;;;640.20;2304.00;;;;;;5009322;28;20026;-74
2021/06/04 07:42:47;;;;;;;7.30;5.85;;;640.00;2252.80;;;;;;5008824;28;20030;-72
2021/06/04 07:45:14;;;;;;;7.15;5.97;;;614.80;2304.00;;;;;;5009208;28;20022;-67
2021/06/04 07:47:40;;;;;;;8.10;5.20;;;589.70;2278.40;;;;;;5009751;28;20022;-69
2021/06/04 07:50:09;;;;;;;6.97;5.90;;;614.80;2227.20;;;;;;5009193;28;20022;-71
2021/06/04 07:52:35;;;;;;;9.02;6.07;;;640.00;2201.60;;;;;;5009303;28;20022;-73
2021/06/04 07:55:02;;;;;;;8.88;5.90;;;640.60;2201.60;;;;;;4994176;28;20033;-75
2021/06/04 07:57:28;;;;;;;7.32;5.60;;;640.90;2099.20;;;;;;5008880;28;20503;-74
2021/06/04 07:59:53;;;;;;;9.93;5.65;;;665.90;2073.60;;;;;;5006439;28;20046;-73
2021/06/04 08:02:19;;;;;;;7.80;5.65;;;665.70;2073.60;;;;;;5009626;28;20121;-81
2021/06/04 08:04:45;;;;;;;14.65;6.25;;;640.90;2073.60;;;;;;5008196;28;20026;-80
2021/06/04 08:07:11;;;;;;;18.75;6.70;;;666.00;2073.60;;;;;;5008666;28;20026;-80
2021/06/04 08:09:41;;;;;;;15.07;5.90;;;666.00;2048.00;;;;;;5009607;28;20037;-70
2021/06/04 08:12:09;;;;;;;15.45;5.90;;;666.10;2073.60;;;;;;5009808;28;20030;-70
2021/06/04 08:14:35;;;;;;;16.70;6.00;;;666.00;2022.40;;;;;;5009531;28;20041;-69
2021/06/04 08:17:01;;;;;;;9.32;4.75;;;666.10;1996.80;;;;;;5009740;28;20392;-71
2021/06/04 08:19:30;;;;;;;6.38;4.57;;;691.20;1920.00;;;;;;5009503;28;20034;-73
2021/06/04 08:21:56;;;;;;;9.60;4.90;;;691.80;1894.40;;;;;;4996437;28;20154;-69
2021/06/04 08:24:34;;;;;;;7.25;4.82;;;716.90;1868.80;;;;;;5009783;28;20428;-69
2021/06/04 08:27:02;;;;;;;9.13;5.00;;;717.40;1843.20;;;;;;5009313;28;20020;-68
2021/06/04 08:29:31;;;;;;;6.95;4.55;;;742.40;1817.60;;;;;;5009753;28;20026;-69
2021/06/04 08:31:58;;;;;;;7.72;4.60;;;742.50;1740.80;;;;;;5009553;28;20105;-69
2021/06/04 08:34:24;;;;;;;6.18;4.53;;;742.60;1792.00;;;;;;5009291;28;20094;-72
2021/06/04 08:36:50;;;;;;;10.65;6.00;;;742.90;1740.80;;;;;;5009476;28;20155;-69
2021/06/04 08:39:19;;;;;;;9.55;4.97;;;743.10;1715.20;;;;;;5009324;28;20018;-70
2021/06/04 08:41:57;;;;;;;7.93;5.10;;;743.10;1664.00;;;;;;5008987;28;20031;-69
2021/06/04 08:44:26;;;;;;;6.22;4.60;;;768.10;1664.00;;;;;;5009197;28;20074;-68
2021/06/04 08:47:16;;;;;;;7.82;4.75;;;742.90;1664.00;;;;;;5009003;28;20018;-69
2021/06/04 08:50:01;;;;;;;6.07;4.47;;;743.30;1612.80;;;;;;5009283;28;20392;-70
2021/06/04 08:52:39;;;;;;;7.20;4.60;;;743.30;1587.20;;;;;;5008944;28;20018;-69
2021/06/04 08:55:11;;;;;;;6.38;3.90;;;768.00;1561.60;;;;;;5009405;28;20392;-71
2021/06/04 08:58:01;;;;;;;7.32;4.72;;;768.10;1561.60;;;;;;4995876;28;20026;-73
2021/06/04 09:00:43;;;;;;;8.30;4.35;;;768.30;1561.60;;;;;;5012132;28;20022;-71
2021/06/04 09:03:18;;;;;;;6.32;4.25;;;743.20;1561.60;;;;;;5012604;28;20034;-71
2021/06/04 09:06:09;;;;;;;7.78;4.15;;;743.10;1587.20;;;;;;5012024;28;20090;-73
2021/06/04 09:08:38;;;;;;;8.15;5.28;;;742.80;1638.40;;;;;;5011917;28;20078;-73
2021/06/04 09:11:06;;;;;;;8.05;5.80;;;743.10;1587.20;;;;;;5012091;28;20038;-69
2021/06/04 09:13:37;;;;;;;5.90;4.38;;;742.90;1612.80;;;;;;5012134;28;20100;-71
2021/06/04 09:16:33;;;;;;;10.02;7.68;;;742.80;1587.20;;;;;;5012142;28;20025;-69
2021/06/04 09:19:19;;;;;;;6.60;4.55;;;742.50;1612.80;;;;;;5001168;28;20042;-74
2021/06/04 09:21:46;;;;;;;7.43;4.53;;;717.50;1561.60;;;;;;5011779;28;20021;-71
2021/06/04 09:24:36;;;;;;;6.28;3.95;;;717.50;1612.80;;;;;;5012056;28;20029;-70
2021/06/04 09:27:02;;;;;;;5.47;4.10;;;717.30;1638.40;;;;;;5008232;28;20026;-70
2021/06/04 09:29:30;;;;;;;8.20;4.00;;;692.10;1612.80;;;;;;5011963;28;20030;-74
2021/06/04 09:31:59;;;;;;;6.53;4.20;;;691.80;1587.20;;;;;;5011747;28;20353;-72
2021/06/04 09:34:29;;;;;;;7.38;4.03;;;691.70;1638.40;;;;;;5011736;28;20026;-72
2021/06/04 09:37:33;;;;;;;7.72;4.57;;;691.40;1664.00;;;;;;5011697;28;20021;-73
2021/06/04 09:40:30;;;;;;;7.80;4.15;;;691.40;1638.40;;;;;;4961595;28;20547;-72
2021/06/04 09:43:10;;;;;;;6.68;3.90;;;691.30;1638.40;;;;;;4945994;28;20074;-71
2021/06/04 09:45:42;;;;;;;6.90;4.15;;;666.50;1638.40;;;;;;4995344;28;20033;-75
2021/06/04 09:48:12;;;;;;;5.88;4.25;;;666.30;1689.60;;;;;;5011846;28;20093;-75
2021/06/04 09:50:44;;;;;;;8.50;4.40;;;666.50;1689.60;;;;;;5011455;28;20030;-71
2021/06/04 09:53:19;;;;;;;6.05;3.90;;;691.30;1689.60;;;;;;5011623;28;20480;-66
2021/06/04 09:56:07;;;;;;;6.72;5.25;;;691.40;1715.20;;;;;;5011387;28;20030;-69
2021/06/04 09:58:52;;;;;;;6.97;4.68;;;691.60;1664.00;;;;;;5011711;28;20019;-68
2021/06/04 10:01:20;;;;;;;6.18;4.10;;;691.60;1689.60;;;;;;5009891;28;20021;-69
2021/06/04 10:03:53;;;;;;;7.03;4.28;;;691.50;1664.00;;;;;;5011334;28;20022;-68
2021/06/04 10:06:33;;;;;;;9.48;4.75;;;691.30;1689.60;;;;;;5011506;28;20029;-68
2021/06/04 10:09:01;;;;;;;7.47;4.82;;;691.40;1715.20;;;;;;5010538;28;20018;-67
2021/06/04 10:11:37;;;;;;;7.72;4.80;;;691.60;1664.00;;;;;;5010963;28;20026;-69
2021/06/04 10:14:21;;;;;;;6.75;4.18;;;691.70;1664.00;;;;;;5011360;28;20025;-71
2021/06/04 10:19:36;;;;;;;6.80;4.50;;;691.70;1664.00;;;;;;5011265;28;20113;-71
2021/06/04 10:22:32;;;;;;;6.90;4.30;;;691.70;1638.40;;;;;;4998393;28;20087;-73
2021/06/04 10:25:00;;;;;;;6.45;3.85;;;691.70;1664.00;;;;;;5011029;28;20476;-73
2021/06/04 10:27:30;;;;;;;7.40;3.78;;;691.60;1612.80;;;;;;5011096;28;20029;-71
2021/06/04 10:30:13;;;;;;;5.68;3.70;;;691.60;1587.20;;;;;;5011210;28;20034;-71
2021/06/04 10:32:46;;;;;;;6.90;4.82;;;691.60;1638.40;;;;;;5011028;28;20034;-69
2021/06/04 10:35:32;;;;;;;5.68;3.55;;;691.70;1612.80;;;;;;5010761;28;20018;-70
2021/06/04 10:38:36;;;;;;;5.32;3.55;;;691.70;1587.20;;;;;;5011046;28;20034;-69
2021/06/04 10:41:12;;;;;;;6.68;3.70;;;691.80;1612.80;;;;;;5000726;28;20085;-70
2021/06/04 10:43:51;;;;;;;5.55;3.70;;;691.80;1612.80;;;;;;5010496;28;20217;-68
2021/06/04 10:46:35;;;;;;;7.57;4.00;;;692.10;1587.20;;;;;;5010593;28;20029;-68
2021/06/04 10:49:10;;;;;;;6.18;3.78;;;692.00;1587.20;;;;;;5010746;28;20044;-69
2021/06/04 10:51:58;;;;;;;7.00;4.60;;;691.90;1587.20;;;;;;5010379;28;20378;-67
2021/06/04 10:54:52;;;;;;;8.20;6.15;;;691.90;1587.20;;;;;;5008218;28;20384;-70
2021/06/04 10:57:28;;;;;;;5.38;3.50;;;716.90;1638.40;;;;;;5010269;28;20033;-76
2021/06/04 11:00:07;;;;;;;5.22;3.58;;;716.80;1612.80;;;;;;5010613;28;20073;-69
2021/06/04 11:03:25;;;;;;;6.47;3.63;;;716.80;1612.80;;;;;;5008736;28;20022;-72
2021/06/04 11:06:22;;;;;;;5.28;3.47;;;692.00;1561.60;;;;;;5002180;28;20032;-74
2021/06/04 11:09:01;;;;;;;5.72;3.70;;;692.10;1561.60;;;;;;4990332;28;20084;-74
2021/06/04 11:11:51;;;;;;;4.82;3.55;;;717.00;1561.60;;;;;;5008974;28;20094;-74
2021/06/04 11:14:38;;;;;;;4.60;3.40;;;717.00;1587.20;;;;;;5010174;28;20113;-77
2021/06/04 11:17:20;;;;;;;7.13;3.60;;;716.80;1587.20;;;;;;5008399;28;20100;-73
2021/06/04 11:19:52;;;;;;;5.47;3.65;;;717.20;1561.60;;;;;;5009945;28;20041;-78
2021/06/04 11:22:20;;;;;;;5.85;3.50;;;716.90;1536.00;;;;;;5009855;28;20033;-74
2021/06/04 11:25:04;;;;;;;7.45;3.60;;;717.30;1587.20;;;;;;5009843;28;20084;-76
2021/06/04 11:27:35;;;;;;;4.95;3.75;;;717.10;1587.20;;;;;;5008825;28;20014;-71
2021/06/04 11:30:06;;;;;;;7.30;3.60;;;717.30;1587.20;;;;;;5009472;28;20058;-72
2021/06/04 11:32:43;;;;;;;8.27;4.32;;;717.50;1561.60;;;;;;5009949;28;20022;-74
2021/06/04 11:35:41;;;;;;;5.63;3.45;;;742.40;1612.80;;;;;;5009913;28;20018;-70
2021/06/04 11:38:19;;;;;;;5.93;3.80;;;742.80;1536.00;;;;;;5020974;28;20102;-71
2021/06/04 11:40:51;;;;;;;5.43;3.40;;;742.90;1561.60;;;;;;4999241;28;20560;-72
2021/06/04 11:43:25;;;;;;;6.93;3.70;;;743.10;1536.00;;;;;;5009785;28;20058;-69
2021/06/04 11:46:22;;;;;;;7.82;3.67;;;742.90;1536.00;;;;;;4999285;28;20022;-70
2021/06/04 11:48:56;;;;;;;7.22;4.30;;;742.80;1536.00;;;;;;5009855;28;20044;-69
2021/06/04 11:51:51;;;;;;;10.35;7.80;;;742.40;1536.00;;;;;;5010025;28;20026;-71
2021/06/04 11:54:20;;;;;;;6.53;4.22;;;742.40;1561.60;;;;;;5010594;28;20033;-71
2021/06/04 11:57:06;;;;;;;7.75;4.03;;;717.70;1510.40;;;;;;5009231;28;20151;-71
2021/06/04 11:59:46;;;;;;;7.05;4.10;;;717.50;1561.60;;;;;;5006688;28;20076;-69
2021/06/04 12:02:30;;;;;;;8.68;6.38;;;717.40;1561.60;;;;;;5009340;28;20033;-70
2021/06/04 12:05:06;;;;;;;6.63;4.00;;;717.40;1536.00;;;;;;5008517;28;20357;-71
2021/06/04 12:07:33;;;;;;;13.77;5.03;;;717.30;1561.60;;;;;;5009339;28;20464;-70
2021/06/04 12:09:59;;;;;;;9.52;4.10;;;717.30;1561.60;;;;;;5008775;28;20098;-70
2021/06/04 12:12:25;;;;;;;5.40;3.80;;;717.20;1561.60;;;;;;5008422;28;20518;-72
2021/06/04 12:14:57;;;;;;;8.02;5.93;;;717.10;1536.00;;;;;;5008836;28;20105;-70
2021/06/04 12:17:31;;;;;;;7.85;3.30;;;717.00;1561.60;;;;;;5009107;28;20075;-69
2021/06/04 12:20:26;;;;;;;5.32;3.53;;;716.90;1561.60;;;;;;5008618;28;20037;-69
2021/06/04 12:22:57;;;;;;;9.18;4.38;;;717.10;1587.20;;;;;;4993926;28;20034;-70
2021/06/04 12:25:47;;;;;;;8.25;3.35;;;716.90;1587.20;;;;;;5008676;28;20022;-71
2021/06/04 12:28:19;;;;;;;5.88;3.22;;;716.80;1561.60;;;;;;5009053;28;20089;-71
2021/06/04 12:31:02;;;;;;;4.47;3.08;;;692.10;1536.00;;;;;;5008850;28;20073;-68
2021/06/04 12:33:53;;;;;;;5.68;3.13;;;691.90;1484.80;;;;;;5009906;28;20380;-70
2021/06/04 12:36:43;;;;;;;9.05;4.70;;;691.80;1484.80;;;;;;5013046;28;20369;-68
2021/06/04 12:39:38;;;;;;;5.40;3.73;;;691.80;1536.00;;;;;;5009185;28;20034;-72
2021/06/04 12:42:23;;;;;;;5.10;2.85;;;691.60;1510.40;;;;;;5012040;28;20342;-69
2021/06/04 12:45:09;;;;;;;5.25;3.28;;;691.70;1510.40;;;;;;5008339;28;20452;-70